Disclaimer

Please do not use the information listed here in-flight or in-navigation, as they are not provided to us by the airports but are provided by volunteers, so they might be outdated.

Search


Regions


Airport information page

Radio informations:
NANJING TWR - 118.85 MHz
NANJING GND - 121.7 MHz
Automatic Terminal Information Service (ATIS) - 126.25 MHz
NANJING APP - 119.25 MHz

Airport informations:
Latitude: 31° 44' 31.35" N
Longitude: 118° 51' 43.29" E
Elevation: 49 feet - 15 meters
Operating hours: N/A
Operating agency: Civil government, landing fees and diplomatic clearance may be required
Timezone: UTC+8
Fuel: Unknown fuel type or whether there is any fuel.

Runway information:
06/24 - 11811 x 148 feet< - >3600 x 45 meters

Recent METARs:
ZSNJ 190400Z VRB01MPS 7000 BKN020 OVC033 10/05 Q1026 NOSIG
ZSNJ 190400Z VRB01MPS 7000 BKN020 OVC033 10/05 Q1026 NOSIG
ZSNJ 190500Z VRB01MPS 7000 BKN020 OVC033 11/05 Q1026 NOSIG

Airport on the map: